sensor_id;sensor_type;location;lat;lon;timestamp;P1;durP1;ratioP1;P2;durP2;ratioP2
20488;SDS011;10403;54.092;12.122;2024-03-22T00:02:07;28.10;;;12.60;;
20488;SDS011;10403;54.092;12.122;2024-03-22T00:04:37;28.90;;;13.67;;
20488;SDS011;10403;54.092;12.122;2024-03-22T00:07:03;28.63;;;14.03;;
20488;SDS011;10403;54.092;12.122;2024-03-22T00:09:30;25.37;;;13.33;;
20488;SDS011;10403;54.092;12.122;2024-03-22T00:11:56;24.23;;;13.93;;
20488;SDS011;10403;54.092;12.122;2024-03-22T00:14:23;30.07;;;14.73;;
20488;SDS011;10403;54.092;12.122;2024-03-22T00:16:49;28.70;;;14.23;;
20488;SDS011;10403;54.092;12.122;2024-03-22T00:19:16;31.10;;;15.40;;
20488;SDS011;10403;54.092;12.122;2024-03-22T00:21:42;30.13;;;15.73;;
20488;SDS011;10403;54.092;12.122;2024-03-22T00:24:08;30.10;;;14.73;;
20488;SDS011;10403;54.092;12.122;2024-03-22T00:26:35;31.07;;;14.17;;
20488;SDS011;10403;54.092;12.122;2024-03-22T00:29:01;29.30;;;15.43;;
20488;SDS011;10403;54.092;12.122;2024-03-22T00:31:27;31.17;;;15.00;;
20488;SDS011;10403;54.092;12.122;2024-03-22T00:33:53;33.03;;;15.17;;
20488;SDS011;10403;54.092;12.122;2024-03-22T00:36:20;27.43;;;14.87;;
20488;SDS011;10403;54.092;12.122;2024-03-22T00:38:46;28.17;;;14.67;;
20488;SDS011;10403;54.092;12.122;2024-03-22T00:41:13;30.90;;;15.53;;
20488;SDS011;10403;54.092;12.122;2024-03-22T00:43:39;28.77;;;14.60;;
20488;SDS011;10403;54.092;12.122;2024-03-22T00:46:06;23.53;;;13.90;;
20488;SDS011;10403;54.092;12.122;2024-03-22T00:48:33;25.60;;;15.40;;
20488;SDS011;10403;54.092;12.122;2024-03-22T00:51:01;31.87;;;15.13;;
20488;SDS011;10403;54.092;12.122;2024-03-22T00:53:28;29.43;;;14.60;;
20488;SDS011;10403;54.092;12.122;2024-03-22T00:55:55;30.17;;;15.20;;
20488;SDS011;10403;54.092;12.122;2024-03-22T00:58:27;33.43;;;15.50;;
20488;SDS011;10403;54.092;12.122;2024-03-22T01:00:54;30.77;;;15.63;;
20488;SDS011;10403;54.092;12.122;2024-03-22T01:03:21;27.77;;;14.87;;
20488;SDS011;10403;54.092;12.122;2024-03-22T01:05:48;26.87;;;14.90;;
20488;SDS011;10403;54.092;12.122;2024-03-22T01:08:14;27.53;;;15.63;;
20488;SDS011;10403;54.092;12.122;2024-03-22T01:10:40;31.33;;;14.30;;
20488;SDS011;10403;54.092;12.122;2024-03-22T01:13:07;28.30;;;15.90;;
20488;SDS011;10403;54.092;12.122;2024-03-22T01:15:34;32.10;;;15.17;;
20488;SDS011;10403;54.092;12.122;2024-03-22T01:18:01;31.73;;;15.57;;
20488;SDS011;10403;54.092;12.122;2024-03-22T01:20:27;34.20;;;14.30;;
20488;SDS011;10403;54.092;12.122;2024-03-22T01:22:54;31.10;;;15.37;;
20488;SDS011;10403;54.092;12.122;2024-03-22T01:25:20;31.93;;;15.50;;
20488;SDS011;10403;54.092;12.122;2024-03-22T01:27:47;33.67;;;15.50;;
20488;SDS011;10403;54.092;12.122;2024-03-22T01:30:13;29.90;;;15.20;;
20488;SDS011;10403;54.092;12.122;2024-03-22T01:32:39;23.40;;;14.07;;
20488;SDS011;10403;54.092;12.122;2024-03-22T01:35:06;30.07;;;14.97;;
20488;SDS011;10403;54.092;12.122;2024-03-22T01:37:34;25.23;;;12.97;;
20488;SDS011;10403;54.092;12.122;2024-03-22T01:40:00;24.37;;;13.17;;
20488;SDS011;10403;54.092;12.122;2024-03-22T01:42:27;36.47;;;13.70;;
20488;SDS011;10403;54.092;12.122;2024-03-22T01:44:53;27.33;;;13.03;;
20488;SDS011;10403;54.092;12.122;2024-03-22T01:47:19;23.60;;;12.33;;
20488;SDS011;10403;54.092;12.122;2024-03-22T01:49:46;26.07;;;12.67;;
20488;SDS011;10403;54.092;12.122;2024-03-22T01:52:14;22.37;;;11.53;;
20488;SDS011;10403;54.092;12.122;2024-03-22T01:54:40;31.00;;;12.40;;
20488;SDS011;10403;54.092;12.122;2024-03-22T01:57:08;28.27;;;12.40;;
20488;SDS011;10403;54.092;12.122;2024-03-22T01:59:35;27.67;;;13.17;;
20488;SDS011;10403;54.092;12.122;2024-03-22T02:02:02;23.73;;;12.27;;
20488;SDS011;10403;54.092;12.122;2024-03-22T02:04:28;24.20;;;12.07;;
20488;SDS011;10403;54.092;12.122;2024-03-22T02:06:55;25.23;;;13.23;;
20488;SDS011;10403;54.092;12.122;2024-03-22T02:09:21;20.90;;;11.60;;
20488;SDS011;10403;54.092;12.122;2024-03-22T02:11:47;23.07;;;12.50;;
20488;SDS011;10403;54.092;12.122;2024-03-22T02:14:14;23.87;;;13.40;;
20488;SDS011;10403;54.092;12.122;2024-03-22T02:16:41;26.60;;;12.80;;
20488;SDS011;10403;54.092;12.122;2024-03-22T02:19:07;26.73;;;13.23;;
20488;SDS011;10403;54.092;12.122;2024-03-22T02:21:34;22.13;;;12.23;;
20488;SDS011;10403;54.092;12.122;2024-03-22T02:24:00;27.87;;;12.07;;
20488;SDS011;10403;54.092;12.122;2024-03-22T02:26:27;24.83;;;13.27;;
20488;SDS011;10403;54.092;12.122;2024-03-22T02:28:53;25.43;;;13.07;;
20488;SDS011;10403;54.092;12.122;2024-03-22T02:31:19;25.17;;;13.17;;
20488;SDS011;10403;54.092;12.122;2024-03-22T02:33:46;26.10;;;12.17;;
20488;SDS011;10403;54.092;12.122;2024-03-22T02:36:12;24.17;;;12.53;;
20488;SDS011;10403;54.092;12.122;2024-03-22T02:38:38;23.53;;;12.73;;
20488;SDS011;10403;54.092;12.122;2024-03-22T02:41:04;23.87;;;11.80;;
20488;SDS011;10403;54.092;12.122;2024-03-22T02:43:31;25.97;;;12.67;;
20488;SDS011;10403;54.092;12.122;2024-03-22T02:45:57;22.23;;;11.63;;
20488;SDS011;10403;54.092;12.122;2024-03-22T02:48:23;21.27;;;12.50;;
20488;SDS011;10403;54.092;12.122;2024-03-22T02:50:49;23.83;;;13.17;;
20488;SDS011;10403;54.092;12.122;2024-03-22T02:53:21;24.23;;;12.27;;
20488;SDS011;10403;54.092;12.122;2024-03-22T02:55:47;25.43;;;12.37;;
20488;SDS011;10403;54.092;12.122;2024-03-22T02:58:14;21.40;;;12.10;;
20488;SDS011;10403;54.092;12.122;2024-03-22T03:00:40;26.73;;;12.67;;
20488;SDS011;10403;54.092;12.122;2024-03-22T03:03:06;23.63;;;12.10;;
20488;SDS011;10403;54.092;12.122;2024-03-22T03:05:33;24.70;;;12.27;;
20488;SDS011;10403;54.092;12.122;2024-03-22T03:08:02;30.83;;;13.47;;
20488;SDS011;10403;54.092;12.122;2024-03-22T03:10:29;22.47;;;11.60;;
20488;SDS011;10403;54.092;12.122;2024-03-22T03:12:55;21.03;;;12.10;;
20488;SDS011;10403;54.092;12.122;2024-03-22T03:15:21;19.20;;;11.43;;
20488;SDS011;10403;54.092;12.122;2024-03-22T03:17:48;21.93;;;11.87;;
20488;SDS011;10403;54.092;12.122;2024-03-22T03:20:14;21.93;;;11.57;;
20488;SDS011;10403;54.092;12.122;2024-03-22T03:22:40;22.50;;;12.50;;
20488;SDS011;10403;54.092;12.122;2024-03-22T03:25:07;21.00;;;11.83;;
20488;SDS011;10403;54.092;12.122;2024-03-22T03:27:34;24.80;;;12.40;;
20488;SDS011;10403;54.092;12.122;2024-03-22T03:30:00;20.67;;;12.20;;
20488;SDS011;10403;54.092;12.122;2024-03-22T03:32:28;26.63;;;11.67;;
20488;SDS011;10403;54.092;12.122;2024-03-22T03:34:54;22.63;;;13.30;;
20488;SDS011;10403;54.092;12.122;2024-03-22T03:37:20;20.97;;;12.20;;
20488;SDS011;10403;54.092;12.122;2024-03-22T03:39:47;26.23;;;12.40;;
20488;SDS011;10403;54.092;12.122;2024-03-22T03:42:13;20.80;;;11.87;;
20488;SDS011;10403;54.092;12.122;2024-03-22T03:44:39;21.07;;;11.77;;
20488;SDS011;10403;54.092;12.122;2024-03-22T03:47:07;21.13;;;12.60;;
20488;SDS011;10403;54.092;12.122;2024-03-22T03:49:33;22.70;;;12.50;;
20488;SDS011;10403;54.092;12.122;2024-03-22T03:52:00;26.53;;;12.07;;
20488;SDS011;10403;54.092;12.122;2024-03-22T03:54:26;20.37;;;11.80;;
20488;SDS011;10403;54.092;12.122;2024-03-22T03:56:53;28.50;;;12.23;;
20488;SDS011;10403;54.092;12.122;2024-03-22T03:59:20;21.83;;;12.60;;
20488;SDS011;10403;54.092;12.122;2024-03-22T04:01:46;20.70;;;11.93;;
20488;SDS011;10403;54.092;12.122;2024-03-22T04:04:13;23.07;;;12.10;;
20488;SDS011;10403;54.092;12.122;2024-03-22T04:06:39;20.73;;;11.73;;
20488;SDS011;10403;54.092;12.122;2024-03-22T04:09:05;20.03;;;10.97;;
20488;SDS011;10403;54.092;12.122;2024-03-22T04:11:32;20.47;;;11.63;;
20488;SDS011;10403;54.092;12.122;2024-03-22T04:13:58;19.30;;;11.60;;
20488;SDS011;10403;54.092;12.122;2024-03-22T04:16:24;25.33;;;12.77;;
20488;SDS011;10403;54.092;12.122;2024-03-22T04:18:51;18.40;;;11.23;;
20488;SDS011;10403;54.092;12.122;2024-03-22T04:21:17;23.57;;;12.40;;
20488;SDS011;10403;54.092;12.122;2024-03-22T04:23:43;21.87;;;12.47;;
20488;SDS011;10403;54.092;12.122;2024-03-22T04:26:10;25.73;;;12.27;;
20488;SDS011;10403;54.092;12.122;2024-03-22T04:28:36;22.43;;;11.37;;
20488;SDS011;10403;54.092;12.122;2024-03-22T04:31:03;20.30;;;11.67;;
20488;SDS011;10403;54.092;12.122;2024-03-22T04:33:33;20.87;;;11.83;;
20488;SDS011;10403;54.092;12.122;2024-03-22T04:36:00;23.97;;;12.03;;
20488;SDS011;10403;54.092;12.122;2024-03-22T04:38:28;19.90;;;12.63;;
20488;SDS011;10403;54.092;12.122;2024-03-22T04:40:55;20.73;;;12.80;;
20488;SDS011;10403;54.092;12.122;2024-03-22T04:43:23;22.40;;;12.83;;
20488;SDS011;10403;54.092;12.122;2024-03-22T04:45:50;23.63;;;13.07;;
20488;SDS011;10403;54.092;12.122;2024-03-22T04:48:18;24.47;;;13.67;;
20488;SDS011;10403;54.092;12.122;2024-03-22T04:50:49;26.60;;;13.90;;
20488;SDS011;10403;54.092;12.122;2024-03-22T04:53:17;27.40;;;14.17;;
20488;SDS011;10403;54.092;12.122;2024-03-22T04:55:46;24.50;;;13.60;;
20488;SDS011;10403;54.092;12.122;2024-03-22T04:58:16;21.00;;;12.83;;
20488;SDS011;10403;54.092;12.122;2024-03-22T05:00:46;22.13;;;13.37;;
20488;SDS011;10403;54.092;12.122;2024-03-22T05:03:14;24.07;;;13.67;;
20488;SDS011;10403;54.092;12.122;2024-03-22T05:05:42;24.93;;;13.67;;
20488;SDS011;10403;54.092;12.122;2024-03-22T05:08:08;22.73;;;14.53;;
20488;SDS011;10403;54.092;12.122;2024-03-22T05:10:35;23.73;;;13.73;;
20488;SDS011;10403;54.092;12.122;2024-03-22T05:13:02;25.40;;;13.97;;
20488;SDS011;10403;54.092;12.122;2024-03-22T05:15:28;23.60;;;14.70;;
20488;SDS011;10403;54.092;12.122;2024-03-22T05:17:56;27.83;;;16.13;;
20488;SDS011;10403;54.092;12.122;2024-03-22T05:20:23;26.40;;;14.70;;
20488;SDS011;10403;54.092;12.122;2024-03-22T05:22:50;25.63;;;14.67;;
20488;SDS011;10403;54.092;12.122;2024-03-22T05:25:16;30.30;;;15.60;;
20488;SDS011;10403;54.092;12.122;2024-03-22T05:27:43;27.17;;;15.23;;
20488;SDS011;10403;54.092;12.122;2024-03-22T05:30:10;27.00;;;16.17;;
20488;SDS011;10403;54.092;12.122;2024-03-22T05:32:39;26.23;;;15.77;;
20488;SDS011;10403;54.092;12.122;2024-03-22T05:35:06;33.60;;;16.10;;
20488;SDS011;10403;54.092;12.122;2024-03-22T05:37:33;29.03;;;15.67;;
20488;SDS011;10403;54.092;12.122;2024-03-22T05:40:00;29.63;;;15.43;;
20488;SDS011;10403;54.092;12.122;2024-03-22T05:42:29;31.63;;;16.77;;
20488;SDS011;10403;54.092;12.122;2024-03-22T05:44:55;29.80;;;16.40;;
20488;SDS011;10403;54.092;12.122;2024-03-22T05:47:21;31.03;;;16.93;;
20488;SDS011;10403;54.092;12.122;2024-03-22T05:49:47;31.30;;;16.20;;
20488;SDS011;10403;54.092;12.122;2024-03-22T05:52:14;31.47;;;16.93;;
20488;SDS011;10403;54.092;12.122;2024-03-22T05:54:40;29.33;;;17.77;;
20488;SDS011;10403;54.092;12.122;2024-03-22T05:57:06;28.97;;;16.57;;
20488;SDS011;10403;54.092;12.122;2024-03-22T05:59:33;41.10;;;19.17;;
20488;SDS011;10403;54.092;12.122;2024-03-22T06:01:59;31.87;;;18.03;;
20488;SDS011;10403;54.092;12.122;2024-03-22T06:04:26;37.63;;;19.30;;
20488;SDS011;10403;54.092;12.122;2024-03-22T06:06:53;36.60;;;18.40;;
20488;SDS011;10403;54.092;12.122;2024-03-22T06:09:19;37.20;;;18.93;;
20488;SDS011;10403;54.092;12.122;2024-03-22T06:12:12;29.43;;;17.30;;
20488;SDS011;10403;54.092;12.122;2024-03-22T06:14:42;33.20;;;17.53;;
20488;SDS011;10403;54.092;12.122;2024-03-22T06:17:08;29.40;;;18.80;;
20488;SDS011;10403;54.092;12.122;2024-03-22T06:19:35;29.33;;;17.50;;
20488;SDS011;10403;54.092;12.122;2024-03-22T06:22:02;37.60;;;20.13;;
20488;SDS011;10403;54.092;12.122;2024-03-22T06:24:29;32.67;;;18.77;;
20488;SDS011;10403;54.092;12.122;2024-03-22T06:26:55;32.83;;;19.80;;
20488;SDS011;10403;54.092;12.122;2024-03-22T06:29:21;31.57;;;18.53;;
20488;SDS011;10403;54.092;12.122;2024-03-22T06:31:48;33.70;;;17.97;;
20488;SDS011;10403;54.092;12.122;2024-03-22T06:34:16;30.03;;;18.77;;
20488;SDS011;10403;54.092;12.122;2024-03-22T06:36:42;37.97;;;18.80;;
20488;SDS011;10403;54.092;12.122;2024-03-22T06:39:08;37.33;;;20.13;;
20488;SDS011;10403;54.092;12.122;2024-03-22T06:41:35;34.17;;;20.50;;
20488;SDS011;10403;54.092;12.122;2024-03-22T06:44:01;33.87;;;19.77;;
20488;SDS011;10403;54.092;12.122;2024-03-22T06:46:28;34.70;;;20.23;;
20488;SDS011;10403;54.092;12.122;2024-03-22T06:48:54;40.47;;;20.27;;
20488;SDS011;10403;54.092;12.122;2024-03-22T06:51:20;36.33;;;20.20;;
20488;SDS011;10403;54.092;12.122;2024-03-22T06:53:47;37.37;;;19.83;;
20488;SDS011;10403;54.092;12.122;2024-03-22T06:56:13;35.57;;;20.80;;
20488;SDS011;10403;54.092;12.122;2024-03-22T06:58:40;37.50;;;21.53;;
20488;SDS011;10403;54.092;12.122;2024-03-22T07:01:06;39.07;;;21.67;;
20488;SDS011;10403;54.092;12.122;2024-03-22T07:03:32;78.70;;;26.17;;
20488;SDS011;10403;54.092;12.122;2024-03-22T07:05:59;56.23;;;23.57;;
20488;SDS011;10403;54.092;12.122;2024-03-22T07:08:26;49.27;;;24.17;;
20488;SDS011;10403;54.092;12.122;2024-03-22T07:10:53;38.33;;;20.70;;
20488;SDS011;10403;54.092;12.122;2024-03-22T07:13:20;49.00;;;22.23;;
20488;SDS011;10403;54.092;12.122;2024-03-22T07:15:48;40.63;;;21.77;;
20488;SDS011;10403;54.092;12.122;2024-03-22T07:18:14;47.20;;;23.60;;
20488;SDS011;10403;54.092;12.122;2024-03-22T07:20:41;41.07;;;21.50;;
20488;SDS011;10403;54.092;12.122;2024-03-22T07:23:08;38.13;;;21.53;;
20488;SDS011;10403;54.092;12.122;2024-03-22T07:25:34;40.70;;;22.27;;
20488;SDS011;10403;54.092;12.122;2024-03-22T07:28:01;38.47;;;21.77;;
20488;SDS011;10403;54.092;12.122;2024-03-22T07:30:27;38.67;;;23.60;;
20488;SDS011;10403;54.092;12.122;2024-03-22T07:32:53;39.43;;;24.07;;
20488;SDS011;10403;54.092;12.122;2024-03-22T07:35:20;53.93;;;24.97;;
20488;SDS011;10403;54.092;12.122;2024-03-22T07:37:46;46.50;;;25.27;;
20488;SDS011;10403;54.092;12.122;2024-03-22T07:40:12;43.87;;;23.53;;
20488;SDS011;10403;54.092;12.122;2024-03-22T07:42:38;52.13;;;24.83;;
20488;SDS011;10403;54.092;12.122;2024-03-22T07:45:05;44.00;;;25.93;;
20488;SDS011;10403;54.092;12.122;2024-03-22T07:47:31;40.73;;;24.73;;
20488;SDS011;10403;54.092;12.122;2024-03-22T07:49:58;44.37;;;25.80;;
20488;SDS011;10403;54.092;12.122;2024-03-22T07:52:24;43.47;;;24.63;;
20488;SDS011;10403;54.092;12.122;2024-03-22T07:54:50;42.50;;;26.60;;
20488;SDS011;10403;54.092;12.122;2024-03-22T07:57:17;50.47;;;27.00;;
20488;SDS011;10403;54.092;12.122;2024-03-22T07:59:44;45.20;;;25.33;;
20488;SDS011;10403;54.092;12.122;2024-03-22T08:02:10;46.37;;;27.00;;
20488;SDS011;10403;54.092;12.122;2024-03-22T08:04:36;51.87;;;28.13;;
20488;SDS011;10403;54.092;12.122;2024-03-22T08:07:03;44.13;;;28.17;;
20488;SDS011;10403;54.092;12.122;2024-03-22T08:09:29;44.07;;;26.87;;
20488;SDS011;10403;54.092;12.122;2024-03-22T08:11:55;42.90;;;26.40;;
20488;SDS011;10403;54.092;12.122;2024-03-22T08:14:22;47.03;;;28.00;;
20488;SDS011;10403;54.092;12.122;2024-03-22T08:16:48;45.27;;;27.87;;
20488;SDS011;10403;54.092;12.122;2024-03-22T08:19:14;47.57;;;28.90;;
20488;SDS011;10403;54.092;12.122;2024-03-22T08:21:41;47.93;;;29.47;;
20488;SDS011;10403;54.092;12.122;2024-03-22T08:24:07;49.67;;;29.70;;
20488;SDS011;10403;54.092;12.122;2024-03-22T08:26:33;46.63;;;27.70;;
20488;SDS011;10403;54.092;12.122;2024-03-22T08:28:59;47.60;;;28.70;;
20488;SDS011;10403;54.092;12.122;2024-03-22T08:31:26;46.03;;;28.93;;
20488;SDS011;10403;54.092;12.122;2024-03-22T08:33:54;49.30;;;30.50;;
20488;SDS011;10403;54.092;12.122;2024-03-22T08:36:22;51.00;;;30.53;;
20488;SDS011;10403;54.092;12.122;2024-03-22T08:38:51;46.73;;;28.27;;
20488;SDS011;10403;54.092;12.122;2024-03-22T08:41:18;51.23;;;28.57;;
20488;SDS011;10403;54.092;12.122;2024-03-22T08:43:45;47.60;;;29.63;;
20488;SDS011;10403;54.092;12.122;2024-03-22T08:46:12;57.83;;;30.93;;
20488;SDS011;10403;54.092;12.122;2024-03-22T08:48:38;59.43;;;31.10;;
20488;SDS011;10403;54.092;12.122;2024-03-22T08:51:05;59.67;;;31.80;;
20488;SDS011;10403;54.092;12.122;2024-03-22T08:53:31;59.17;;;32.97;;
20488;SDS011;10403;54.092;12.122;2024-03-22T08:55:57;70.13;;;31.93;;
20488;SDS011;10403;54.092;12.122;2024-03-22T08:58:24;55.70;;;31.30;;
20488;SDS011;10403;54.092;12.122;2024-03-22T09:00:50;49.00;;;30.93;;
20488;SDS011;10403;54.092;12.122;2024-03-22T09:03:17;58.97;;;31.80;;
20488;SDS011;10403;54.092;12.122;2024-03-22T09:05:43;56.10;;;33.20;;
20488;SDS011;10403;54.092;12.122;2024-03-22T09:08:10;67.33;;;34.13;;
20488;SDS011;10403;54.092;12.122;2024-03-22T09:10:36;67.27;;;32.17;;
20488;SDS011;10403;54.092;12.122;2024-03-22T09:13:02;58.60;;;33.37;;
20488;SDS011;10403;54.092;12.122;2024-03-22T09:15:29;58.50;;;34.77;;
20488;SDS011;10403;54.092;12.122;2024-03-22T09:17:56;60.63;;;34.70;;
20488;SDS011;10403;54.092;12.122;2024-03-22T09:20:22;63.80;;;31.80;;
20488;SDS011;10403;54.092;12.122;2024-03-22T09:22:49;57.43;;;31.83;;
20488;SDS011;10403;54.092;12.122;2024-03-22T09:25:15;61.37;;;33.57;;
20488;SDS011;10403;54.092;12.122;2024-03-22T09:27:41;63.50;;;33.20;;
20488;SDS011;10403;54.092;12.122;2024-03-22T09:30:08;54.53;;;32.30;;
20488;SDS011;10403;54.092;12.122;2024-03-22T09:32:35;60.27;;;34.63;;
20488;SDS011;10403;54.092;12.122;2024-03-22T09:35:01;60.43;;;32.90;;
20488;SDS011;10403;54.092;12.122;2024-03-22T09:37:27;61.80;;;35.43;;
20488;SDS011;10403;54.092;12.122;2024-03-22T09:39:54;59.33;;;34.90;;
20488;SDS011;10403;54.092;12.122;2024-03-22T09:42:20;61.03;;;33.63;;
20488;SDS011;10403;54.092;12.122;2024-03-22T09:44:54;61.10;;;34.00;;
20488;SDS011;10403;54.092;12.122;2024-03-22T09:47:21;59.83;;;33.00;;
20488;SDS011;10403;54.092;12.122;2024-03-22T09:49:50;53.93;;;33.20;;
20488;SDS011;10403;54.092;12.122;2024-03-22T09:52:16;65.73;;;34.70;;
20488;SDS011;10403;54.092;12.122;2024-03-22T09:54:46;62.67;;;33.03;;
20488;SDS011;10403;54.092;12.122;2024-03-22T09:57:15;58.53;;;33.67;;
20488;SDS011;10403;54.092;12.122;2024-03-22T09:59:42;63.70;;;34.00;;
20488;SDS011;10403;54.092;12.122;2024-03-22T10:02:11;56.90;;;32.87;;
20488;SDS011;10403;54.092;12.122;2024-03-22T10:04:47;54.77;;;32.90;;
20488;SDS011;10403;54.092;12.122;2024-03-22T10:07:14;70.70;;;34.80;;
20488;SDS011;10403;54.092;12.122;2024-03-22T10:09:40;60.97;;;33.87;;
20488;SDS011;10403;54.092;12.122;2024-03-22T10:12:08;61.63;;;33.33;;
20488;SDS011;10403;54.092;12.122;2024-03-22T10:14:34;61.23;;;34.00;;
20488;SDS011;10403;54.092;12.122;2024-03-22T10:17:02;64.43;;;34.53;;
20488;SDS011;10403;54.092;12.122;2024-03-22T10:19:29;64.10;;;34.27;;
20488;SDS011;10403;54.092;12.122;2024-03-22T10:22:01;62.73;;;37.03;;
20488;SDS011;10403;54.092;12.122;2024-03-22T10:24:29;61.80;;;35.57;;
20488;SDS011;10403;54.092;12.122;2024-03-22T10:26:56;62.53;;;34.40;;
20488;SDS011;10403;54.092;12.122;2024-03-22T10:29:22;66.67;;;35.63;;
20488;SDS011;10403;54.092;12.122;2024-03-22T10:31:54;64.67;;;34.57;;
20488;SDS011;10403;54.092;12.122;2024-03-22T10:34:21;65.03;;;35.30;;
20488;SDS011;10403;54.092;12.122;2024-03-22T10:36:50;63.20;;;34.73;;
20488;SDS011;10403;54.092;12.122;2024-03-22T10:39:17;60.17;;;33.97;;
20488;SDS011;10403;54.092;12.122;2024-03-22T10:41:48;64.97;;;35.27;;
20488;SDS011;10403;54.092;12.122;2024-03-22T10:44:14;60.80;;;33.03;;
20488;SDS011;10403;54.092;12.122;2024-03-22T10:46:45;64.80;;;33.37;;
20488;SDS011;10403;54.092;12.122;2024-03-22T10:49:18;62.97;;;33.60;;
20488;SDS011;10403;54.092;12.122;2024-03-22T10:51:47;67.13;;;35.70;;
20488;SDS011;10403;54.092;12.122;2024-03-22T10:54:30;60.50;;;32.37;;
20488;SDS011;10403;54.092;12.122;2024-03-22T10:57:04;60.60;;;33.70;;
20488;SDS011;10403;54.092;12.122;2024-03-22T10:59:36;60.77;;;33.50;;
20488;SDS011;10403;54.092;12.122;2024-03-22T11:02:06;58.83;;;33.57;;
20488;SDS011;10403;54.092;12.122;2024-03-22T11:04:32;63.63;;;33.43;;
20488;SDS011;10403;54.092;12.122;2024-03-22T11:06:59;60.50;;;34.93;;
20488;SDS011;10403;54.092;12.122;2024-03-22T11:09:26;60.30;;;34.53;;
20488;SDS011;10403;54.092;12.122;2024-03-22T11:11:53;68.07;;;36.03;;
20488;SDS011;10403;54.092;12.122;2024-03-22T11:14:22;65.13;;;34.30;;
20488;SDS011;10403;54.092;12.122;2024-03-22T11:16:52;58.17;;;32.43;;
20488;SDS011;10403;54.092;12.122;2024-03-22T11:19:18;63.90;;;34.40;;
20488;SDS011;10403;54.092;12.122;2024-03-22T11:21:44;61.17;;;33.87;;
20488;SDS011;10403;54.092;12.122;2024-03-22T11:24:11;63.13;;;35.67;;
20488;SDS011;10403;54.092;12.122;2024-03-22T11:26:37;57.83;;;33.93;;
20488;SDS011;10403;54.092;12.122;2024-03-22T11:29:04;59.50;;;34.63;;
20488;SDS011;10403;54.092;12.122;2024-03-22T11:31:30;57.10;;;33.63;;
20488;SDS011;10403;54.092;12.122;2024-03-22T11:33:57;52.93;;;32.30;;
20488;SDS011;10403;54.092;12.122;2024-03-22T11:36:24;60.90;;;33.80;;
20488;SDS011;10403;54.092;12.122;2024-03-22T11:38:50;55.57;;;32.57;;
20488;SDS011;10403;54.092;12.122;2024-03-22T11:41:24;58.13;;;33.53;;
20488;SDS011;10403;54.092;12.122;2024-03-22T11:43:54;57.50;;;30.37;;
20488;SDS011;10403;54.092;12.122;2024-03-22T11:46:23;54.80;;;31.50;;
20488;SDS011;10403;54.092;12.122;2024-03-22T11:48:51;53.27;;;31.40;;
20488;SDS011;10403;54.092;12.122;2024-03-22T11:51:21;51.20;;;30.10;;
20488;SDS011;10403;54.092;12.122;2024-03-22T11:53:48;51.20;;;29.03;;
20488;SDS011;10403;54.092;12.122;2024-03-22T11:56:20;49.27;;;28.60;;
20488;SDS011;10403;54.092;12.122;2024-03-22T11:58:47;51.50;;;27.60;;
20488;SDS011;10403;54.092;12.122;2024-03-22T12:01:17;48.63;;;26.87;;
20488;SDS011;10403;54.092;12.122;2024-03-22T12:03:47;47.47;;;27.40;;
20488;SDS011;10403;54.092;12.122;2024-03-22T12:06:13;47.63;;;29.07;;
20488;SDS011;10403;54.092;12.122;2024-03-22T12:08:41;46.50;;;28.00;;
20488;SDS011;10403;54.092;12.122;2024-03-22T12:11:07;46.47;;;26.90;;
20488;SDS011;10403;54.092;12.122;2024-03-22T12:13:35;39.27;;;23.90;;
20488;SDS011;10403;54.092;12.122;2024-03-22T12:16:03;44.37;;;25.30;;
20488;SDS011;10403;54.092;12.122;2024-03-22T12:18:30;42.40;;;23.50;;
20488;SDS011;10403;54.092;12.122;2024-03-22T12:20:57;39.73;;;23.00;;
20488;SDS011;10403;54.092;12.122;2024-03-22T12:23:24;37.60;;;21.80;;
20488;SDS011;10403;54.092;12.122;2024-03-22T12:25:50;38.93;;;22.30;;
20488;SDS011;10403;54.092;12.122;2024-03-22T12:28:18;37.60;;;21.67;;
20488;SDS011;10403;54.092;12.122;2024-03-22T12:30:47;38.70;;;21.07;;
20488;SDS011;10403;54.092;12.122;2024-03-22T12:33:15;33.67;;;20.30;;
20488;SDS011;10403;54.092;12.122;2024-03-22T12:35:42;36.53;;;20.43;;
20488;SDS011;10403;54.092;12.122;2024-03-22T12:38:09;37.43;;;21.07;;
20488;SDS011;10403;54.092;12.122;2024-03-22T12:40:37;31.17;;;19.53;;
20488;SDS011;10403;54.092;12.122;2024-03-22T12:43:04;29.77;;;18.67;;
20488;SDS011;10403;54.092;12.122;2024-03-22T12:45:31;30.23;;;18.73;;
20488;SDS011;10403;54.092;12.122;2024-03-22T12:47:58;31.53;;;18.27;;
20488;SDS011;10403;54.092;12.122;2024-03-22T12:50:24;26.00;;;16.03;;
20488;SDS011;10403;54.092;12.122;2024-03-22T12:52:52;26.23;;;16.13;;
20488;SDS011;10403;54.092;12.122;2024-03-22T12:55:19;25.63;;;15.37;;
20488;SDS011;10403;54.092;12.122;2024-03-22T12:57:45;26.10;;;14.10;;
20488;SDS011;10403;54.092;12.122;2024-03-22T13:00:12;24.97;;;14.50;;
20488;SDS011;10403;54.092;12.122;2024-03-22T13:02:44;21.13;;;13.07;;
20488;SDS011;10403;54.092;12.122;2024-03-22T13:05:11;20.67;;;13.13;;
20488;SDS011;10403;54.092;12.122;2024-03-22T13:07:39;28.20;;;13.67;;
20488;SDS011;10403;54.092;12.122;2024-03-22T13:10:05;23.40;;;14.43;;
20488;SDS011;10403;54.092;12.122;2024-03-22T13:12:33;22.63;;;13.87;;
20488;SDS011;10403;54.092;12.122;2024-03-22T13:15:03;21.57;;;13.30;;
20488;SDS011;10403;54.092;12.122;2024-03-22T13:17:30;26.90;;;13.67;;
20488;SDS011;10403;54.092;12.122;2024-03-22T13:19:56;22.23;;;13.63;;
20488;SDS011;10403;54.092;12.122;2024-03-22T13:22:22;22.00;;;13.60;;
20488;SDS011;10403;54.092;12.122;2024-03-22T13:24:48;21.17;;;12.60;;
20488;SDS011;10403;54.092;12.122;2024-03-22T13:27:16;18.13;;;11.47;;
20488;SDS011;10403;54.092;12.122;2024-03-22T13:29:43;19.67;;;11.13;;
20488;SDS011;10403;54.092;12.122;2024-03-22T13:32:09;17.90;;;11.07;;
20488;SDS011;10403;54.092;12.122;2024-03-22T13:34:36;19.03;;;10.80;;
20488;SDS011;10403;54.092;12.122;2024-03-22T13:37:04;20.23;;;10.73;;
20488;SDS011;10403;54.092;12.122;2024-03-22T13:39:31;19.83;;;11.20;;
20488;SDS011;10403;54.092;12.122;2024-03-22T13:41:58;17.20;;;11.33;;
20488;SDS011;10403;54.092;12.122;2024-03-22T13:44:24;15.67;;;9.53;;
20488;SDS011;10403;54.092;12.122;2024-03-22T13:46:51;14.83;;;9.80;;
20488;SDS011;10403;54.092;12.122;2024-03-22T13:49:18;16.07;;;10.53;;
20488;SDS011;10403;54.092;12.122;2024-03-22T13:51:49;14.17;;;9.20;;
20488;SDS011;10403;54.092;12.122;2024-03-22T13:54:16;12.87;;;7.70;;
20488;SDS011;10403;54.092;12.122;2024-03-22T13:56:42;9.27;;;6.60;;
20488;SDS011;10403;54.092;12.122;2024-03-22T13:59:08;10.97;;;6.07;;
20488;SDS011;10403;54.092;12.122;2024-03-22T14:01:35;8.63;;;5.50;;
20488;SDS011;10403;54.092;12.122;2024-03-22T14:04:03;7.80;;;5.77;;
20488;SDS011;10403;54.092;12.122;2024-03-22T14:06:30;7.30;;;4.97;;
20488;SDS011;10403;54.092;12.122;2024-03-22T14:08:58;6.13;;;4.43;;